createdAt,value
2019-04-10T00:01:29.884Z,97382.00
2019-04-10T00:03:59.253Z,97380.00
2019-04-10T00:06:29.853Z,97378.00
2019-04-10T00:08:59.449Z,97381.00
2019-04-10T00:11:29.042Z,97379.00
2019-04-10T00:13:58.759Z,97381.00
2019-04-10T00:16:28.039Z,97372.00
2019-04-10T00:18:58.154Z,97379.00
2019-04-10T00:21:27.434Z,97383.00
2019-04-10T00:23:57.689Z,97379.00
2019-04-10T00:26:27.863Z,97380.00
2019-04-10T00:28:58.067Z,97375.00
2019-04-10T00:31:27.662Z,97374.00
2019-04-10T00:33:57.062Z,97369.00
2019-04-10T00:36:26.853Z,97375.00
2019-04-10T00:38:56.384Z,97375.00
2019-04-10T00:41:25.661Z,97374.00
2019-04-10T00:43:55.234Z,97382.00
2019-04-10T00:46:24.897Z,97378.00
2019-04-10T00:48:54.538Z,97379.00
2019-04-10T00:51:24.111Z,97379.00
2019-04-10T00:53:53.903Z,97376.00
2019-04-10T00:56:24.181Z,97380.00
2019-04-10T00:58:53.960Z,97376.00
2019-04-10T01:01:23.678Z,97374.00
2019-04-10T01:03:53.901Z,97378.00
2019-04-10T01:06:24.101Z,97374.00
2019-04-10T01:08:53.513Z,97373.00
2019-04-10T01:11:23.184Z,97368.00
2019-04-10T01:13:53.598Z,97370.00
2019-04-10T01:16:23.184Z,97366.00
2019-04-10T01:18:53.247Z,97363.00
2019-04-10T01:21:22.552Z,97366.00
2019-04-10T01:23:53.135Z,97368.00
2019-04-10T01:26:23.244Z,97370.00
2019-04-10T01:28:54.077Z,97360.00
2019-04-10T01:31:23.773Z,97363.00
2019-04-10T01:33:53.383Z,97364.00
2019-04-10T01:36:22.812Z,97360.00
2019-04-10T01:38:52.122Z,97358.00
2019-04-10T01:41:21.406Z,97358.00
2019-04-10T01:43:51.153Z,97359.00
2019-04-10T01:46:20.991Z,97357.00
2019-04-10T01:48:51.296Z,97360.00
2019-04-10T01:51:21.374Z,97359.00
2019-04-10T01:53:50.975Z,97359.00
2019-04-10T01:56:25.920Z,97357.00
2019-04-10T01:58:52.030Z,97354.00
2019-04-10T02:01:26.219Z,97352.00
2019-04-10T02:03:55.845Z,97354.00
2019-04-10T02:06:25.454Z,97360.00
2019-04-10T02:08:54.970Z,97346.00
2019-04-10T02:11:24.249Z,97348.00
2019-04-10T02:13:54.014Z,97348.00
2019-04-10T02:16:24.521Z,97350.00
2019-04-10T02:18:55.031Z,97345.00
2019-04-10T02:21:25.397Z,97341.00
2019-04-10T02:23:54.767Z,97340.00
2019-04-10T02:26:24.058Z,97345.00
2019-04-10T02:28:53.453Z,97347.00
2019-04-10T02:31:24.147Z,97343.00
2019-04-10T02:33:53.835Z,97338.00
2019-04-10T02:36:23.541Z,97330.00
2019-04-10T02:39:05.654Z,97337.00
2019-04-10T02:41:23.939Z,97336.00
2019-04-10T02:43:53.765Z,97329.00
2019-04-10T02:46:23.179Z,97339.00
2019-04-10T02:48:54.116Z,97335.00
2019-04-10T02:51:25.075Z,97331.00
2019-04-10T02:53:56.084Z,97337.00
2019-04-10T02:56:25.753Z,97340.00
2019-04-10T02:58:56.667Z,97334.00
2019-04-10T03:01:27.277Z,97343.00
2019-04-10T03:03:57.093Z,97343.00
2019-04-10T03:06:27.326Z,97340.00
2019-04-10T03:09:10.318Z,97341.00
2019-04-10T03:11:28.045Z,97334.00
2019-04-10T03:13:59.084Z,97343.00
2019-04-10T03:16:29.119Z,97350.00
2019-04-10T03:18:58.418Z,97339.00
2019-04-10T03:21:27.717Z,97346.00
2019-04-10T03:23:57.977Z,97340.00
2019-04-10T03:26:27.903Z,97343.00
2019-04-10T03:28:57.753Z,97343.00
2019-04-10T03:31:27.863Z,97341.00
2019-04-10T03:34:08.515Z,97333.00
2019-04-10T03:36:38.554Z,97340.00
2019-04-10T03:39:10.559Z,97342.00
2019-04-10T03:41:40.224Z,97337.00
2019-04-10T03:44:10.270Z,97345.00
2019-04-10T03:46:40.250Z,97337.00
2019-04-10T03:49:09.771Z,97340.00
2019-04-10T03:51:39.049Z,97349.00
2019-04-10T03:54:09.064Z,97354.00
2019-04-10T03:56:38.488Z,97347.00
2019-04-10T03:59:08.378Z,97353.00
2019-04-10T04:01:38.820Z,97351.00
2019-04-10T04:04:09.095Z,97358.00
2019-04-10T04:06:39.754Z,97354.00
2019-04-10T04:09:11.651Z,97354.00
2019-04-10T04:11:40.455Z,97354.00
2019-04-10T04:14:10.375Z,97353.00
2019-04-10T04:16:39.892Z,97354.00
2019-04-10T04:19:10.129Z,97344.00
2019-04-10T04:21:39.766Z,97349.00
2019-04-10T04:24:09.422Z,97355.00
2019-04-10T04:26:39.319Z,97355.00
2019-04-10T04:29:09.657Z,97353.00
2019-04-10T04:31:40.024Z,97352.00
2019-04-10T04:34:10.014Z,97351.00
2019-04-10T04:36:40.803Z,97358.00
2019-04-10T04:39:21.182Z,97362.00
2019-04-10T04:41:42.139Z,97355.00
2019-04-10T04:44:12.363Z,97358.00
2019-04-10T04:46:42.943Z,97359.00
2019-04-10T04:49:13.665Z,97366.00
2019-04-10T04:51:43.763Z,97364.00
2019-04-10T04:54:13.287Z,97362.00
2019-04-10T04:56:42.568Z,97376.00
2019-04-10T04:59:12.137Z,97372.00
2019-04-10T05:01:42.506Z,97372.00
2019-04-10T05:04:11.784Z,97377.00
2019-04-10T05:06:41.767Z,97377.00
2019-04-10T05:09:11.317Z,97388.00
2019-04-10T05:11:40.730Z,97390.00
2019-04-10T05:14:11.037Z,97387.00
2019-04-10T05:16:41.573Z,97395.00
2019-04-10T05:19:10.945Z,97390.00
2019-04-10T05:21:40.239Z,97394.00
2019-04-10T05:24:09.548Z,97391.00
2019-04-10T05:26:38.816Z,97395.00
2019-04-10T05:29:08.970Z,97400.00
2019-04-10T05:31:38.515Z,97397.00
2019-04-10T05:34:09.290Z,97399.00
2019-04-10T05:36:38.626Z,97405.00
2019-04-10T05:39:08.643Z,97405.00
2019-04-10T05:41:37.942Z,97401.00
2019-04-10T05:44:07.514Z,97400.00
2019-04-10T05:46:36.842Z,97403.00
2019-04-10T05:49:06.759Z,97411.00
2019-04-10T05:51:37.423Z,97405.00
2019-04-10T05:54:07.062Z,97417.00
2019-04-10T05:56:36.484Z,97415.00
2019-04-10T05:59:08.461Z,97415.00
2019-04-10T06:01:39.742Z,97418.00
2019-04-10T06:04:09.200Z,97425.00
2019-04-10T06:06:38.795Z,97422.00
2019-04-10T06:09:09.629Z,97416.00
2019-04-10T06:11:39.462Z,97413.00
2019-04-10T06:14:10.165Z,97419.00
2019-04-10T06:16:40.488Z,97419.00
2019-04-10T06:19:09.797Z,97421.00
2019-04-10T06:21:39.739Z,97421.00
2019-04-10T06:24:09.899Z,97426.00
2019-04-10T06:26:39.541Z,97426.00
2019-04-10T06:29:08.871Z,97423.00
2019-04-10T06:31:39.029Z,97419.00
2019-04-10T06:34:08.912Z,97410.00
2019-04-10T06:36:38.271Z,97421.00
2019-04-10T06:39:08.880Z,97420.00
2019-04-10T06:41:39.021Z,97414.00
2019-04-10T06:44:08.341Z,97416.00
2019-04-10T06:46:39.334Z,97415.00
2019-04-10T06:49:09.289Z,97410.00
2019-04-10T06:51:38.616Z,97410.00
2019-04-10T06:54:10.992Z,97422.00
2019-04-10T06:56:38.903Z,97428.00
2019-04-10T06:59:08.712Z,97414.00
2019-04-10T07:01:44.323Z,97425.00
2019-04-10T07:04:09.941Z,97418.00
2019-04-10T07:06:54.887Z,97424.00
2019-04-10T07:09:11.991Z,97419.00
2019-04-10T07:11:42.638Z,97419.00
2019-04-10T07:14:14.323Z,97421.00
2019-04-10T07:16:44.255Z,97423.00
2019-04-10T07:19:13.925Z,97425.00
2019-04-10T07:21:43.606Z,97420.00
2019-04-10T07:24:15.033Z,97430.00
2019-04-10T07:26:46.579Z,97421.00
2019-04-10T07:29:18.733Z,97428.00
2019-04-10T07:31:46.661Z,97427.00
2019-04-10T07:34:19.981Z,97428.00
2019-04-10T07:36:47.038Z,97431.00
2019-04-10T07:39:17.345Z,97428.00
2019-04-10T07:41:47.327Z,97437.00
2019-04-10T07:44:16.920Z,97437.00
2019-04-10T07:46:46.628Z,97437.00
2019-04-10T07:49:18.294Z,97443.00
2019-04-10T07:51:49.035Z,97439.00
2019-04-10T07:54:21.254Z,97441.00
2019-04-10T07:56:49.617Z,97443.00
2019-04-10T07:59:18.894Z,97446.00
2019-04-10T08:01:48.183Z,97454.00
2019-04-10T08:04:18.242Z,97455.00
2019-04-10T08:06:47.709Z,97455.00
2019-04-10T08:09:17.068Z,97455.00
2019-04-10T08:11:46.860Z,97449.00
2019-04-10T08:14:16.858Z,97451.00
2019-04-10T08:16:46.169Z,97459.00
2019-04-10T08:19:16.448Z,97461.00
2019-04-10T08:21:46.458Z,97458.00
2019-04-10T08:24:15.898Z,97454.00
2019-04-10T08:26:45.203Z,97460.00
2019-04-10T08:29:14.460Z,97459.00
2019-04-10T08:31:44.248Z,97464.00
2019-04-10T08:34:13.610Z,97466.00
2019-04-10T08:36:43.635Z,97468.00
2019-04-10T08:39:17.297Z,97460.00
2019-04-10T08:41:43.927Z,97470.00
2019-04-10T08:44:13.569Z,97459.00
2019-04-10T08:46:42.862Z,97468.00
2019-04-10T08:49:12.221Z,97471.00
2019-04-10T08:51:41.626Z,97472.00
2019-04-10T08:54:12.001Z,97465.00
2019-04-10T08:56:41.335Z,97462.00
2019-04-10T08:59:11.719Z,97466.00
2019-04-10T09:01:41.759Z,97463.00
2019-04-10T09:04:11.058Z,97464.00
2019-04-10T09:06:40.334Z,97469.00
2019-04-10T09:09:09.818Z,97459.00
2019-04-10T09:11:39.039Z,97466.00
2019-04-10T09:14:08.648Z,97467.00
2019-04-10T09:16:38.561Z,97471.00
2019-04-10T09:19:07.886Z,97472.00
2019-04-10T09:21:37.167Z,97465.00
2019-04-10T09:24:06.454Z,97473.00
2019-04-10T09:26:36.179Z,97474.00
2019-04-10T09:29:06.624Z,97469.00
2019-04-10T09:31:36.047Z,97472.00
2019-04-10T09:34:05.906Z,97474.00
2019-04-10T09:36:35.517Z,97470.00
2019-04-10T09:39:07.418Z,97477.00
2019-04-10T09:41:36.630Z,97479.00
2019-04-10T09:44:06.632Z,97483.00
2019-04-10T09:46:35.943Z,97485.00
2019-04-10T09:49:05.569Z,97478.00
2019-04-10T09:51:36.166Z,97484.00
2019-04-10T09:54:05.649Z,97488.00
2019-04-10T09:56:34.934Z,97486.00
2019-04-10T09:59:05.364Z,97482.00
2019-04-10T10:01:35.579Z,97473.00
2019-04-10T10:04:05.050Z,97471.00
2019-04-10T10:06:36.543Z,97479.00
2019-04-10T10:09:08.389Z,97473.00
2019-04-10T10:11:38.618Z,97479.00
2019-04-10T10:14:08.265Z,97481.00
2019-04-10T10:16:37.590Z,97476.00
2019-04-10T10:19:07.850Z,97477.00
2019-04-10T10:21:37.235Z,97470.00
2019-04-10T10:24:06.637Z,97469.00
2019-04-10T10:26:36.496Z,97472.00
2019-04-10T10:29:05.901Z,97472.00
2019-04-10T10:31:36.060Z,97471.00
2019-04-10T10:34:06.057Z,97475.00
2019-04-10T10:36:41.093Z,97475.00
2019-04-10T10:39:13.080Z,97480.00
2019-04-10T10:41:42.645Z,97486.00
2019-04-10T10:44:13.045Z,97479.00
2019-04-10T10:46:42.358Z,97479.00
2019-04-10T10:49:12.523Z,97481.00
2019-04-10T10:51:42.598Z,97484.00
2019-04-10T10:54:12.607Z,97485.00
2019-04-10T10:56:42.618Z,97486.00
2019-04-10T10:59:11.994Z,97484.00
2019-04-10T11:01:42.154Z,97488.00
2019-04-10T11:04:12.943Z,97489.00
2019-04-10T11:09:15.908Z,97491.00
2019-04-10T11:11:45.476Z,97481.00
2019-04-10T11:14:15.104Z,97487.00
2019-04-10T11:16:45.498Z,97484.00
2019-04-10T11:19:15.371Z,97491.00
2019-04-10T11:21:45.107Z,97493.00
2019-04-10T11:24:15.034Z,97483.00
2019-04-10T11:26:44.581Z,97478.00
2019-04-10T11:29:14.378Z,97471.00
2019-04-10T11:31:45.770Z,97472.00
2019-04-10T11:34:16.582Z,97486.00
2019-04-10T11:36:46.203Z,97475.00
2019-04-10T11:39:22.587Z,97479.00
2019-04-10T11:41:49.956Z,97474.00
2019-04-10T11:44:20.310Z,97480.00
2019-04-10T11:46:49.473Z,97486.00
2019-04-10T11:49:20.141Z,97477.00
2019-04-10T11:51:52.980Z,97493.00
2019-04-10T11:54:26.418Z,97486.00
2019-04-10T11:56:56.131Z,97478.00
2019-04-10T11:59:26.208Z,97495.00
2019-04-10T12:02:01.002Z,97495.00
2019-04-10T12:04:29.538Z,97492.00
2019-04-10T12:07:00.188Z,97494.00
2019-04-10T12:10:49.517Z,97486.00
2019-04-10T12:12:00.178Z,97502.00
2019-04-10T12:14:29.984Z,97493.00
2019-04-10T12:16:59.567Z,97495.00
2019-04-10T12:19:29.094Z,97503.00
2019-04-10T12:21:58.681Z,97494.00
2019-04-10T12:24:28.209Z,97498.00
2019-04-10T12:26:58.337Z,97490.00
2019-04-10T12:29:28.965Z,97499.00
2019-04-10T12:31:58.611Z,97498.00
2019-04-10T12:34:28.534Z,97494.00
2019-04-10T12:36:58.751Z,97498.00
2019-04-10T12:39:28.061Z,97498.00
2019-04-10T12:41:57.555Z,97505.00
2019-04-10T12:44:26.871Z,97499.00
2019-04-10T12:46:56.144Z,97495.00
2019-04-10T12:49:25.600Z,97503.00
2019-04-10T12:51:54.889Z,97512.00
2019-04-10T12:54:24.497Z,97509.00
2019-04-10T12:56:54.729Z,97513.00
2019-04-10T12:59:24.037Z,97503.00
2019-04-10T13:01:54.099Z,97515.00
2019-04-10T13:04:24.720Z,97518.00
2019-04-10T13:06:54.817Z,97513.00
2019-04-10T13:09:24.282Z,97516.00
2019-04-10T13:11:53.557Z,97515.00
2019-04-10T13:14:22.835Z,97521.00
2019-04-10T13:16:52.234Z,97520.00
2019-04-10T13:19:21.499Z,97517.00
2019-04-10T13:21:51.670Z,97520.00
2019-04-10T13:24:21.532Z,97522.00
2019-04-10T13:26:50.975Z,97515.00
2019-04-10T13:29:21.171Z,97518.00
2019-04-10T13:31:51.608Z,97514.00
2019-04-10T13:34:21.520Z,97524.00
2019-04-10T13:36:51.606Z,97517.00
2019-04-10T13:39:22.405Z,97522.00
2019-04-10T13:41:52.555Z,97518.00
2019-04-10T13:44:22.412Z,97521.00
2019-04-10T13:46:51.949Z,97516.00
2019-04-10T13:49:21.982Z,97525.00
2019-04-10T13:51:51.875Z,97519.00
2019-04-10T13:54:21.205Z,97520.00
2019-04-10T13:56:50.945Z,97511.00
2019-04-10T13:59:20.753Z,97514.00
2019-04-10T14:01:50.567Z,97510.00
2019-04-10T14:04:20.086Z,97523.00
2019-04-10T14:06:49.678Z,97525.00
2019-04-10T14:09:34.358Z,97514.00
2019-04-10T14:11:51.297Z,97519.00
2019-04-10T14:14:20.965Z,97516.00
2019-04-10T14:16:50.569Z,97528.00
2019-04-10T14:19:19.853Z,97526.00
2019-04-10T14:21:49.245Z,97523.00
2019-04-10T14:24:19.978Z,97526.00
2019-04-10T14:27:06.202Z,97533.00
2019-04-10T14:29:35.730Z,97533.00
2019-04-10T14:32:08.915Z,97536.00
2019-04-10T14:34:38.811Z,97537.00
2019-04-10T14:37:09.783Z,97534.00
2019-04-10T14:39:39.581Z,97543.00
2019-04-10T14:42:10.581Z,97540.00
2019-04-10T14:44:41.033Z,97536.00
2019-04-10T14:47:11.425Z,97541.00
2019-04-10T14:49:41.488Z,97536.00
2019-04-10T14:52:10.808Z,97540.00
2019-04-10T14:54:40.053Z,97547.00
2019-04-10T14:57:10.523Z,97548.00
2019-04-10T14:59:40.098Z,97549.00
2019-04-10T15:02:10.550Z,97543.00
2019-04-10T15:04:39.936Z,97536.00
2019-04-10T15:07:10.163Z,97550.00
2019-04-10T15:09:39.500Z,97540.00
2019-04-10T15:12:10.050Z,97544.00
2019-04-10T15:14:39.632Z,97547.00
2019-04-10T15:17:09.452Z,97546.00
2019-04-10T15:19:39.075Z,97552.00
2019-04-10T15:22:09.476Z,97554.00
2019-04-10T15:24:39.730Z,97552.00
2019-04-10T15:27:09.282Z,97549.00
2019-04-10T15:29:38.677Z,97545.00
2019-04-10T15:32:08.455Z,97548.00
2019-04-10T15:34:37.812Z,97548.00
2019-04-10T15:37:07.099Z,97554.00
2019-04-10T15:39:39.891Z,97557.00
2019-04-10T15:42:07.905Z,97557.00
2019-04-10T15:44:38.284Z,97561.00
2019-04-10T15:47:16.200Z,97558.00
2019-04-10T15:49:39.402Z,97557.00
2019-04-10T15:52:08.700Z,97560.00
2019-04-10T15:54:38.242Z,97559.00
2019-04-10T15:57:08.675Z,97564.00
2019-04-10T15:59:38.638Z,97564.00
2019-04-10T16:02:08.107Z,97561.00
2019-04-10T16:04:37.389Z,97562.00
2019-04-10T16:07:06.998Z,97563.00
2019-04-10T16:09:45.432Z,97569.00
2019-04-10T16:12:11.861Z,97568.00
2019-04-10T16:14:41.144Z,97564.00
2019-04-10T16:17:13.112Z,97574.00
2019-04-10T16:19:51.216Z,97569.00
2019-04-10T16:22:23.403Z,97569.00
2019-04-10T16:24:53.373Z,97575.00
2019-04-10T16:27:22.902Z,97573.00
2019-04-10T16:29:53.107Z,97575.00
2019-04-10T16:32:24.429Z,97575.00
2019-04-10T16:34:54.641Z,97576.00
2019-04-10T16:37:24.325Z,97585.00
2019-04-10T16:40:01.729Z,97588.00
2019-04-10T16:42:25.133Z,97583.00
2019-04-10T16:44:54.406Z,97585.00
2019-04-10T16:47:23.688Z,97583.00
2019-04-10T16:49:53.265Z,97593.00
2019-04-10T16:52:23.130Z,97597.00
2019-04-10T16:54:53.435Z,97597.00
2019-04-10T16:57:23.114Z,97603.00
2019-04-10T16:59:52.903Z,97600.00
2019-04-10T17:02:22.530Z,97597.00
2019-04-10T17:04:52.216Z,97603.00
2019-04-10T17:07:21.762Z,97608.00
2019-04-10T17:09:51.572Z,97608.00
2019-04-10T17:12:21.946Z,97613.00
2019-04-10T17:14:51.599Z,97616.00
2019-04-10T17:17:22.120Z,97623.00
2019-04-10T17:19:55.506Z,97623.00
2019-04-10T17:22:30.877Z,97623.00
2019-04-10T17:24:54.020Z,97625.00
2019-04-10T17:27:23.654Z,97625.00
2019-04-10T17:29:53.475Z,97628.00
2019-04-10T17:32:24.484Z,97632.00
2019-04-10T17:34:54.896Z,97626.00
2019-04-10T17:37:25.502Z,97637.00
2019-04-10T17:39:55.667Z,97631.00
2019-04-10T17:42:25.373Z,97641.00
2019-04-10T17:44:56.186Z,97635.00
2019-04-10T17:47:26.958Z,97638.00
2019-04-10T17:49:56.320Z,97639.00
2019-04-10T17:52:27.027Z,97646.00
2019-04-10T17:54:56.428Z,97644.00
2019-04-10T17:57:36.302Z,97646.00
2019-04-10T17:59:56.701Z,97654.00
2019-04-10T18:02:26.358Z,97652.00
2019-04-10T18:04:56.051Z,97657.00
2019-04-10T18:07:25.437Z,97656.00
2019-04-10T18:09:54.722Z,97649.00
2019-04-10T18:12:24.352Z,97668.00
2019-04-10T18:14:53.960Z,97663.00
2019-04-10T18:17:24.857Z,97668.00
2019-04-10T18:19:54.663Z,97673.00
2019-04-10T18:22:24.711Z,97674.00
2019-04-10T18:24:54.339Z,97676.00
2019-04-10T18:27:24.599Z,97680.00
2019-04-10T18:29:55.189Z,97684.00
2019-04-10T18:32:25.508Z,97687.00
2019-04-10T18:34:54.860Z,97688.00
2019-04-10T18:37:25.555Z,97696.00
2019-04-10T18:39:55.008Z,97701.00
2019-04-10T18:42:24.712Z,97701.00
2019-04-10T18:44:53.998Z,97704.00
2019-04-10T18:47:23.280Z,97717.00
2019-04-10T18:49:52.568Z,97721.00
2019-04-10T18:52:23.347Z,97718.00
2019-04-10T18:54:53.998Z,97725.00
2019-04-10T18:57:24.049Z,97719.00
2019-04-10T19:00:15.249Z,97719.00
2019-04-10T19:02:45.818Z,97727.00
2019-04-10T19:05:20.105Z,97722.00
2019-04-10T19:07:50.251Z,97720.00
2019-04-10T19:10:20.056Z,97723.00
2019-04-10T19:12:50.719Z,97734.00
2019-04-10T19:15:20.430Z,97728.00
2019-04-10T19:17:50.945Z,97727.00
2019-04-10T19:20:20.556Z,97743.00
2019-04-10T19:22:50.669Z,97740.00
2019-04-10T19:25:20.989Z,97736.00
2019-04-10T19:27:50.705Z,97742.00
2019-04-10T19:30:37.385Z,97742.00
2019-04-10T19:33:07.992Z,97744.00
2019-04-10T19:35:37.622Z,97742.00
2019-04-10T19:38:07.356Z,97741.00
2019-04-10T19:40:38.686Z,97751.00
2019-04-10T19:43:08.415Z,97751.00
2019-04-10T19:45:38.001Z,97751.00
2019-04-10T19:48:08.710Z,97749.00
2019-04-10T19:50:38.441Z,97754.00
2019-04-10T19:53:08.999Z,97757.00
2019-04-10T19:55:38.623Z,97756.00
2019-04-10T19:58:08.082Z,97762.00
2019-04-10T20:00:38.741Z,97758.00
2019-04-10T20:03:08.319Z,97760.00
2019-04-10T20:05:37.927Z,97765.00
2019-04-10T20:08:07.639Z,97778.00
2019-04-10T20:10:37.419Z,97773.00
2019-04-10T20:13:06.972Z,97780.00
2019-04-10T20:15:36.361Z,97779.00
2019-04-10T20:18:05.652Z,97773.00
2019-04-10T20:20:37.487Z,97767.00
2019-04-10T20:23:06.953Z,97770.00
2019-04-10T20:25:36.728Z,97770.00
2019-04-10T20:28:06.868Z,97780.00
2019-04-10T20:30:37.021Z,97784.00
2019-04-10T20:33:06.797Z,97788.00
2019-04-10T20:35:36.395Z,97784.00
2019-04-10T20:38:07.107Z,97790.00
2019-04-10T20:40:36.741Z,97780.00
2019-04-10T20:43:06.881Z,97785.00
2019-04-10T20:45:37.948Z,97784.00
2019-04-10T20:48:08.557Z,97791.00
2019-04-10T20:50:37.860Z,97798.00
2019-04-10T20:53:07.515Z,97795.00
2019-04-10T20:55:37.651Z,97799.00
2019-04-10T20:58:07.030Z,97794.00
2019-04-10T21:00:43.041Z,97795.00
2019-04-10T21:03:13.517Z,97791.00
2019-04-10T21:05:42.922Z,97799.00
2019-04-10T21:08:13.645Z,97801.00
2019-04-10T21:10:43.016Z,97812.00
2019-04-10T21:13:12.972Z,97814.00
2019-04-10T21:15:42.367Z,97807.00
2019-04-10T21:18:13.118Z,97810.00
2019-04-10T21:20:43.200Z,97815.00
2019-04-10T21:23:13.133Z,97817.00
2019-04-10T21:25:43.541Z,97815.00
2019-04-10T21:28:14.094Z,97819.00
2019-04-10T21:30:48.723Z,97821.00
2019-04-10T21:33:23.076Z,97827.00
2019-04-10T21:35:52.607Z,97820.00
2019-04-10T21:38:21.974Z,97820.00
2019-04-10T21:40:51.787Z,97827.00
2019-04-10T21:43:21.762Z,97829.00
2019-04-10T21:45:52.334Z,97836.00
2019-04-10T21:48:22.408Z,97836.00
2019-04-10T21:50:51.827Z,97835.00
2019-04-10T21:53:21.945Z,97840.00
2019-04-10T21:55:51.585Z,97844.00
2019-04-10T21:58:21.996Z,97844.00
2019-04-10T22:00:53.268Z,97847.00
2019-04-10T22:03:23.284Z,97844.00
2019-04-10T22:05:55.302Z,97850.00
2019-04-10T22:08:42.468Z,97846.00
2019-04-10T22:11:12.814Z,97854.00
2019-04-10T22:13:42.378Z,97848.00
2019-04-10T22:16:13.627Z,97862.00
2019-04-10T22:18:42.850Z,97855.00
2019-04-10T22:21:12.554Z,97850.00
2019-04-10T22:23:42.718Z,97848.00
2019-04-10T22:26:12.025Z,97861.00
2019-04-10T22:28:41.382Z,97870.00
2019-04-10T22:31:11.668Z,97871.00
2019-04-10T22:33:41.018Z,97869.00
2019-04-10T22:36:10.838Z,97875.00
2019-04-10T22:38:40.173Z,97878.00
2019-04-10T22:41:22.937Z,97887.00
2019-04-10T22:43:41.068Z,97873.00
2019-04-10T22:46:10.948Z,97882.00
2019-04-10T22:48:41.636Z,97887.00
2019-04-10T22:51:11.283Z,97884.00
2019-04-10T22:53:41.691Z,97883.00
2019-04-10T22:56:11.355Z,97890.00
2019-04-10T22:58:42.450Z,97879.00
2019-04-10T23:01:13.147Z,97884.00
2019-04-10T23:03:43.180Z,97883.00
2019-04-10T23:06:13.282Z,97887.00
2019-04-10T23:08:42.661Z,97885.00
2019-04-10T23:11:13.109Z,97892.00
2019-04-10T23:13:42.555Z,97890.00
2019-04-10T23:16:15.377Z,97896.00
2019-04-10T23:18:42.939Z,97899.00
2019-04-10T23:21:12.374Z,97895.00
2019-04-10T23:23:41.569Z,97895.00
2019-04-10T23:26:11.103Z,97894.00
2019-04-10T23:28:40.503Z,97900.00
2019-04-10T23:31:09.784Z,97893.00
2019-04-10T23:33:39.911Z,97901.00
2019-04-10T23:36:09.712Z,97898.00
2019-04-10T23:38:39.603Z,97917.00
2019-04-10T23:41:09.449Z,97917.00
2019-04-10T23:43:39.804Z,97919.00
2019-04-10T23:46:11.219Z,97920.00
2019-04-10T23:48:41.215Z,97926.00
2019-04-10T23:51:10.652Z,97929.00
2019-04-10T23:53:40.453Z,97926.00
2019-04-10T23:56:09.770Z,97928.00
2019-04-10T23:58:40.233Z,97932.00
